Current Weather

Gatwick

Gatwick, United Kingdom (EGKK)

Report from: Friday, February 23, 2024 7:20 PM GMT
Current time: Friday, February 23, 2024 7:40 PM GMT

Nearby weather – Weather history – Daily summaries
Weather forecast

Temperature4.0°C (39.2°F)
Wind chill1.7°C (35.0°F)
Dew point1.0°C (33.8°F)
Winds 5 kts (2.6 m/s, 5.8 mph) South (190°)
Clouds Sky clear
Altimeter29.21 in.Hg (989 mB)
Relative humidity81 %
Density altitude-400 ft. (-122 m)
Remarks Ceiling and visibility OK
Flight conditions Visual Meteorological Conditions
Raw dataEGKK 231920Z 19005KT CAVOK 04/01 Q0989
An error has occurred. This application may no longer respond until reloaded. Reload 🗙